Douglass, Kansas
Current Conditions -  °F | °C
As of 7:08 AM on Friday 19 Dec 2014 (Local Time) from KIAB Reporting Station
Overcast Overcast  
Wind Chill: 25°   Ceiling: 300
Heat Index: 30°   Visibility: 7mi
Dew Point: 28°   Wind: 5mph
Humidity: 93%   Direction: 130°SE
Pressure: 30.23"   Gusts: NA
Location:  37.52°N, 97.01°W
Report Text: KIAB 191308Z AUTO 13004KT 7SM R01/5500FT OVC003 M01/M02 A3023 RMK AO2
Loading
Personal Weather Stations






























Interactive Weather Map New forecast layout! Learn more

10-Day Weather Forecast

Advertisements
Track Severe Weather on mobile